createdAt,value
2023-04-04T00:00:06.027Z,0.00
2023-04-04T00:01:06.015Z,0.00
2023-04-04T00:02:06.036Z,0.00
2023-04-04T05:08:41.484Z,472.00
2023-04-04T05:09:41.357Z,508.00
2023-04-04T05:10:41.843Z,548.00
2023-04-04T05:11:41.424Z,592.00
2023-04-04T05:12:41.360Z,644.00
2023-04-04T05:13:41.329Z,692.00
2023-04-04T05:14:41.316Z,740.00
2023-04-04T05:15:41.366Z,792.00
2023-04-04T05:16:41.333Z,848.00
2023-04-04T05:17:41.336Z,896.00
2023-04-04T05:18:41.264Z,936.00
2023-04-04T05:19:41.334Z,976.00
2023-04-04T05:20:41.612Z,1016.00
2023-04-04T05:21:41.325Z,1060.00
2023-04-04T05:22:41.237Z,1108.00
2023-04-04T05:23:41.232Z,1156.00
2023-04-04T05:24:41.201Z,1212.00
2023-04-04T05:25:41.205Z,1264.00
2023-04-04T05:26:41.191Z,1328.00
2023-04-04T05:27:41.182Z,1392.00
2023-04-04T05:28:41.165Z,1456.00
2023-04-04T05:29:41.154Z,1520.00
2023-04-04T05:30:41.491Z,1584.00
2023-04-04T05:31:41.257Z,1656.00
2023-04-04T05:32:41.206Z,1732.00
2023-04-04T05:33:41.109Z,1816.00
2023-04-04T05:34:41.112Z,1904.00
2023-04-04T05:35:41.232Z,1988.00
2023-04-04T05:36:41.112Z,2068.00
2023-04-04T05:37:41.080Z,2144.00
2023-04-04T05:38:41.071Z,2220.00
2023-04-04T05:39:41.054Z,2288.00
2023-04-04T05:40:41.403Z,2352.00
2023-04-04T05:41:41.042Z,2404.00
2023-04-04T05:42:41.021Z,2460.00
2023-04-04T05:43:41.048Z,2520.00
2023-04-04T05:44:41.038Z,2580.00
2023-04-04T05:45:41.967Z,2644.00
2023-04-04T05:46:41.002Z,2704.00
2023-04-04T05:47:40.972Z,2756.00
2023-04-04T05:48:40.974Z,2796.00
2023-04-04T05:49:41.032Z,2852.00
2023-04-04T05:50:41.247Z,2912.00
2023-04-04T05:51:40.934Z,2976.00
2023-04-04T05:52:40.932Z,3036.00
2023-04-04T05:53:40.919Z,3096.00
2023-04-04T05:54:40.928Z,3168.00
2023-04-04T05:55:40.902Z,3244.00
2023-04-04T05:56:40.883Z,3332.00
2023-04-04T05:57:40.874Z,3412.00
2023-04-04T05:58:40.877Z,3476.00
2023-04-04T05:59:40.952Z,3536.00
2023-04-04T06:00:41.132Z,3588.00
2023-04-04T06:01:40.831Z,3632.00
2023-04-04T06:02:40.902Z,3672.00
2023-04-04T06:03:40.855Z,3704.00
2023-04-04T06:04:40.808Z,3732.00
2023-04-04T06:05:40.928Z,3760.00
2023-04-04T06:06:40.768Z,3792.00
2023-04-04T06:07:40.810Z,3828.00
2023-04-04T06:08:52.898Z,3868.00
2023-04-04T06:09:41.775Z,3912.00
2023-04-04T06:10:41.116Z,3960.00
2023-04-04T06:11:40.794Z,4016.00
2023-04-04T06:12:40.747Z,4068.00
2023-04-04T06:13:40.692Z,4128.00
2023-04-04T06:14:40.685Z,4200.00
2023-04-04T06:15:40.683Z,4284.00
2023-04-04T06:16:40.720Z,4376.00
2023-04-04T06:17:40.721Z,4468.00
2023-04-04T06:18:40.653Z,4568.00
2023-04-04T06:19:40.645Z,4672.00
2023-04-04T06:20:40.887Z,6528.00
2023-04-04T06:21:40.609Z,11628.00
2023-04-04T06:22:40.633Z,15712.00
2023-04-04T06:23:40.603Z,16064.00
2023-04-04T06:24:40.579Z,15936.00
2023-04-04T06:25:40.582Z,16672.00
2023-04-04T06:26:40.583Z,16800.00
2023-04-04T06:27:40.552Z,15232.00
2023-04-04T06:28:40.546Z,17024.00
2023-04-04T06:29:40.545Z,19424.00
2023-04-04T06:30:40.778Z,19968.00
2023-04-04T06:31:40.544Z,20864.00
2023-04-04T06:32:40.570Z,22048.00
2023-04-04T06:33:40.515Z,22976.00
2023-04-04T06:34:40.546Z,23008.00
2023-04-04T06:35:40.492Z,23328.00
2023-04-04T06:36:40.457Z,21696.00
2023-04-04T06:37:40.440Z,21120.00
2023-04-04T06:38:40.442Z,19968.00
2023-04-04T06:39:40.546Z,20544.00
2023-04-04T06:40:40.652Z,20672.00
2023-04-04T06:41:40.401Z,21216.00
2023-04-04T06:42:40.433Z,22848.00
2023-04-04T06:43:40.381Z,24096.00
2023-04-04T06:44:40.455Z,23680.00
2023-04-04T06:45:40.378Z,22848.00
2023-04-04T06:46:40.448Z,20768.00
2023-04-04T06:47:40.390Z,23552.00
2023-04-04T06:48:40.331Z,24576.00
2023-04-04T06:49:40.339Z,24608.00
2023-04-04T06:50:40.493Z,25344.00
2023-04-04T06:51:40.302Z,25472.00
2023-04-04T06:52:40.304Z,27968.00
2023-04-04T06:53:40.263Z,29216.00
2023-04-04T06:54:40.379Z,29408.00
2023-04-04T06:55:40.262Z,29888.00
2023-04-04T06:56:40.251Z,29568.00
2023-04-04T06:57:40.233Z,30304.00
2023-04-04T06:58:40.230Z,31968.00
2023-04-04T06:59:40.259Z,33696.00
2023-04-04T07:00:40.548Z,33664.00
2023-04-04T07:01:40.184Z,34272.00
2023-04-04T07:02:40.385Z,34944.00
2023-04-04T07:03:40.156Z,35168.00
2023-04-04T07:04:40.884Z,32064.00
2023-04-04T07:05:40.172Z,28640.00
2023-04-04T07:06:40.145Z,26816.00
2023-04-04T07:07:40.124Z,27008.00
2023-04-04T07:08:40.144Z,20000.00
2023-04-04T07:09:40.414Z,11508.00
2023-04-04T07:10:41.238Z,9888.00
2023-04-04T07:11:40.096Z,12388.00
2023-04-04T07:12:40.083Z,11028.00
2023-04-04T07:13:40.852Z,16672.00
2023-04-04T07:14:40.048Z,26752.00
2023-04-04T07:15:40.086Z,29888.00
2023-04-04T07:16:40.093Z,13620.00
2023-04-04T07:17:40.137Z,18240.00
2023-04-04T07:18:40.014Z,26656.00
2023-04-04T07:19:40.007Z,39712.00
2023-04-04T07:20:40.263Z,36928.00
2023-04-04T07:21:39.991Z,19072.00
2023-04-04T07:22:39.979Z,11464.00
2023-04-04T07:23:39.961Z,17984.00
2023-04-04T07:24:39.963Z,16448.00
2023-04-04T07:25:39.962Z,14152.00
2023-04-04T07:26:39.956Z,14264.00
2023-04-04T07:27:40.037Z,24544.00
2023-04-04T07:28:39.955Z,42624.00
2023-04-04T07:29:39.897Z,17792.00
2023-04-04T07:30:40.178Z,42208.00
2023-04-04T07:31:39.900Z,31168.00
2023-04-04T07:32:39.870Z,33216.00
2023-04-04T07:33:39.915Z,20768.00
2023-04-04T07:34:39.843Z,18720.00
2023-04-04T07:35:39.860Z,21184.00
2023-04-04T07:36:39.887Z,18048.00
2023-04-04T07:37:39.816Z,37696.00
2023-04-04T07:38:39.838Z,44544.00
2023-04-04T07:39:39.804Z,46496.00
2023-04-04T07:40:40.015Z,49920.00
2023-04-04T07:41:39.806Z,51424.00
2023-04-04T07:42:39.754Z,50720.00
2023-04-04T07:43:39.743Z,53344.00
2023-04-04T07:44:39.721Z,52960.00
2023-04-04T07:45:39.732Z,54784.00
2023-04-04T07:46:39.772Z,56896.00
2023-04-04T07:47:39.732Z,51424.00
2023-04-04T07:48:39.675Z,45280.00
2023-04-04T07:49:39.665Z,43712.00
2023-04-04T07:50:39.995Z,36544.00
2023-04-04T07:51:39.652Z,38688.00
2023-04-04T07:52:39.634Z,42240.00
2023-04-04T07:53:39.615Z,49024.00
2023-04-04T07:54:39.643Z,52032.00
2023-04-04T07:55:39.618Z,53696.00
2023-04-04T07:56:39.615Z,53536.00
2023-04-04T07:57:39.610Z,53856.00
2023-04-04T07:58:39.579Z,53984.00
2023-04-04T07:59:39.559Z,54752.00
2023-04-04T08:00:39.804Z,56224.00
2023-04-04T08:01:39.584Z,57056.00
2023-04-04T08:02:39.694Z,56608.00
2023-04-04T08:03:39.610Z,57216.00
2023-04-04T08:04:39.531Z,59936.00
2023-04-04T08:05:39.505Z,63040.00
2023-04-04T08:06:39.510Z,62976.00
2023-04-04T08:07:39.468Z,63744.00
2023-04-04T08:08:39.456Z,63648.00
2023-04-04T08:09:39.447Z,61632.00
2023-04-04T08:10:39.642Z,61888.00
2023-04-04T08:11:39.529Z,63680.00
2023-04-04T08:12:39.424Z,65312.00
2023-04-04T08:13:39.416Z,62304.00
2023-04-04T08:14:39.427Z,60480.00
2023-04-04T08:15:39.423Z,61152.00
2023-04-04T08:16:39.393Z,62368.00
2023-04-04T08:17:39.377Z,62976.00
2023-04-04T08:18:39.362Z,65856.00
2023-04-04T08:19:39.383Z,69280.00
2023-04-04T08:20:39.496Z,67904.00
2023-04-04T08:21:39.360Z,68512.00
2023-04-04T08:22:39.317Z,71104.00
2023-04-04T08:23:39.313Z,69856.00
2023-04-04T08:24:39.289Z,68672.00
2023-04-04T08:25:39.362Z,66208.00
2023-04-04T08:26:39.278Z,70400.00
2023-04-04T08:27:39.259Z,67232.00
2023-04-04T08:28:39.267Z,68672.00
2023-04-04T08:29:39.242Z,68416.00
2023-04-04T08:30:39.398Z,71104.00
2023-04-04T08:31:39.257Z,72736.00
2023-04-04T08:32:39.267Z,72320.00
2023-04-04T08:33:47.176Z,70592.00
2023-04-04T08:34:40.339Z,69120.00
2023-04-04T08:35:39.266Z,69568.00
2023-04-04T08:36:39.155Z,67584.00
2023-04-04T08:37:39.144Z,74528.00
2023-04-04T08:38:39.132Z,75648.00
2023-04-04T08:39:39.136Z,78080.00
2023-04-04T08:40:39.301Z,78560.00
2023-04-04T08:41:39.111Z,79456.00
2023-04-04T08:42:39.102Z,78784.00
2023-04-04T08:43:39.082Z,79456.00
2023-04-04T08:44:39.078Z,76864.00
2023-04-04T08:45:39.074Z,76032.00
2023-04-04T08:46:39.114Z,72512.00
2023-04-04T08:47:39.067Z,75136.00
2023-04-04T08:48:39.069Z,71872.00
2023-04-04T08:49:39.041Z,72032.00
2023-04-04T08:50:39.270Z,72864.00
2023-04-04T08:51:39.056Z,71648.00
2023-04-04T08:52:38.988Z,73376.00
2023-04-04T08:53:39.014Z,77824.00
2023-04-04T08:54:38.971Z,81792.00
2023-04-04T08:55:38.961Z,83104.00
2023-04-04T08:56:38.963Z,84608.00
2023-04-04T08:57:38.952Z,82784.00
2023-04-04T08:58:39.014Z,80224.00
2023-04-04T08:59:39.066Z,86592.00
2023-04-04T09:00:39.185Z,83040.00
2023-04-04T09:01:39.031Z,81152.00
2023-04-04T09:02:38.956Z,78144.00
2023-04-04T09:03:38.871Z,75360.00
2023-04-04T09:04:38.923Z,75360.00
2023-04-04T09:05:38.888Z,76896.00
2023-04-04T09:06:38.853Z,86752.00
2023-04-04T09:07:39.846Z,89888.00
2023-04-04T09:08:38.836Z,94336.00
2023-04-04T09:09:38.832Z,96960.00
2023-04-04T09:10:38.945Z,89504.00
2023-04-04T09:11:38.824Z,83232.00
2023-04-04T09:12:38.781Z,79904.00
2023-04-04T09:13:40.296Z,80448.00
2023-04-04T09:14:38.764Z,82528.00
2023-04-04T09:15:38.752Z,84064.00
2023-04-04T09:16:38.803Z,85472.00
2023-04-04T09:17:38.775Z,87616.00
2023-04-04T09:18:38.781Z,92096.00
2023-04-04T09:19:38.798Z,93088.00
2023-04-04T09:20:38.997Z,98304.00
2023-04-04T09:21:38.689Z,100192.00
2023-04-04T09:22:38.696Z,95296.00
2023-04-04T09:23:38.660Z,93024.00
2023-04-04T09:24:38.662Z,91680.00
2023-04-04T09:25:38.677Z,86432.00
2023-04-04T09:26:38.806Z,86560.00
2023-04-04T09:27:38.623Z,83968.00
2023-04-04T09:28:38.625Z,88768.00
2023-04-04T09:29:38.608Z,93184.00
2023-04-04T09:30:38.907Z,95328.00
2023-04-04T09:31:38.754Z,96608.00
2023-04-04T09:32:38.696Z,96128.00
2023-04-04T09:33:38.562Z,95904.00
2023-04-04T09:34:38.568Z,93952.00
2023-04-04T09:35:38.566Z,87680.00
2023-04-04T09:36:38.589Z,94816.00
2023-04-04T09:37:38.575Z,97344.00
2023-04-04T09:38:38.524Z,92704.00
2023-04-04T09:39:38.489Z,94880.00
2023-04-04T09:40:38.725Z,88736.00
2023-04-04T09:41:38.493Z,81440.00
2023-04-04T09:42:38.506Z,82976.00
2023-04-04T09:43:38.459Z,84608.00
2023-04-04T09:44:38.440Z,88864.00
2023-04-04T09:45:38.431Z,88992.00
2023-04-04T09:46:38.575Z,91936.00
2023-04-04T09:47:38.470Z,88960.00
2023-04-04T09:48:38.397Z,89888.00
2023-04-04T09:49:38.376Z,87520.00
2023-04-04T09:50:38.634Z,81376.00
2023-04-04T09:51:38.358Z,79936.00
2023-04-04T09:52:38.378Z,79200.00
2023-04-04T09:53:38.361Z,77408.00
2023-04-04T09:54:47.838Z,78848.00
2023-04-04T09:55:39.447Z,77952.00
2023-04-04T09:56:38.351Z,75776.00
2023-04-04T09:57:38.293Z,77120.00
2023-04-04T09:58:42.328Z,78400.00
2023-04-04T09:59:39.321Z,82496.00
2023-04-04T10:00:38.575Z,85984.00
2023-04-04T10:01:38.330Z,89376.00
2023-04-04T10:02:38.271Z,88416.00
2023-04-04T10:03:38.308Z,91392.00
2023-04-04T10:04:38.316Z,89184.00
2023-04-04T10:05:38.217Z,90016.00
2023-04-04T10:06:38.235Z,89184.00
2023-04-04T10:07:38.195Z,88608.00
2023-04-04T10:08:38.235Z,86144.00
2023-04-04T10:09:38.176Z,87904.00
2023-04-04T10:10:38.430Z,88064.00
2023-04-04T10:11:38.174Z,89504.00
2023-04-04T10:12:38.161Z,94624.00
2023-04-04T10:13:38.131Z,92992.00
2023-04-04T10:14:38.132Z,93280.00
2023-04-04T10:15:38.156Z,91136.00
2023-04-04T10:16:38.701Z,90048.00
2023-04-04T10:17:38.175Z,94944.00
2023-04-04T10:18:38.128Z,97760.00
2023-04-04T10:19:38.085Z,98112.00
2023-04-04T10:20:38.244Z,102048.00
2023-04-04T10:21:38.069Z,102272.00
2023-04-04T10:22:38.054Z,104768.00
2023-04-04T10:23:38.082Z,113024.00
2023-04-04T10:24:38.022Z,103840.00
2023-04-04T10:25:38.010Z,102080.00
2023-04-04T10:26:38.030Z,104416.00
2023-04-04T10:27:38.057Z,100320.00
2023-04-04T10:28:37.979Z,95008.00
2023-04-04T10:29:37.975Z,101600.00
2023-04-04T10:30:38.314Z,107232.00
2023-04-04T10:31:37.984Z,101568.00
2023-04-04T10:32:37.991Z,121888.00
2023-04-04T10:33:37.934Z,130112.00
2023-04-04T10:34:37.929Z,121120.00
2023-04-04T10:35:37.938Z,137344.00
2023-04-04T10:36:37.904Z,134720.00
2023-04-04T10:37:37.944Z,132544.00
2023-04-04T10:38:37.937Z,135360.00
2023-04-04T10:39:37.883Z,132640.00
2023-04-04T10:40:38.189Z,132224.00
2023-04-04T10:41:37.888Z,129728.00
2023-04-04T10:42:37.844Z,132448.00
2023-04-04T10:43:37.820Z,135296.00
2023-04-04T10:44:37.850Z,133888.00
2023-04-04T10:45:37.845Z,131008.00
2023-04-04T10:46:37.898Z,130848.00
2023-04-04T10:47:37.845Z,133280.00
2023-04-04T10:48:37.902Z,129408.00
2023-04-04T10:49:37.762Z,124960.00
2023-04-04T10:50:37.754Z,139968.00
2023-04-04T10:51:48.868Z,132640.00
2023-04-04T10:52:38.767Z,132288.00
2023-04-04T10:53:37.713Z,129920.00
2023-04-04T10:54:37.731Z,129536.00
2023-04-04T10:55:38.115Z,121664.00
2023-04-04T10:56:37.689Z,122592.00
2023-04-04T10:57:37.732Z,125696.00
2023-04-04T10:58:37.685Z,121600.00
2023-04-04T10:59:37.776Z,126848.00
2023-04-04T11:00:37.721Z,132736.00
2023-04-04T11:01:37.650Z,120544.00
2023-04-04T11:02:37.717Z,123872.00
2023-04-04T11:03:37.637Z,124032.00
2023-04-04T11:04:37.979Z,113504.00
2023-04-04T11:05:37.733Z,123808.00
2023-04-04T11:06:37.645Z,130080.00
2023-04-04T11:07:37.642Z,127232.00
2023-04-04T11:08:37.653Z,125440.00
2023-04-04T11:09:37.562Z,117248.00
2023-04-04T11:10:37.677Z,125216.00
2023-04-04T11:11:38.195Z,115712.00
2023-04-04T11:12:37.556Z,116512.00
2023-04-04T11:13:37.586Z,124704.00
2023-04-04T11:14:37.496Z,122272.00
2023-04-04T11:15:37.637Z,122816.00
2023-04-04T11:16:37.533Z,124128.00
2023-04-04T11:17:37.554Z,121536.00
2023-04-04T11:18:37.827Z,119712.00
2023-04-04T11:19:37.484Z,125888.00
2023-04-04T11:20:37.523Z,128640.00
2023-04-04T11:21:37.452Z,123584.00
2023-04-04T11:22:37.425Z,127488.00
2023-04-04T11:23:37.539Z,124544.00
2023-04-04T11:24:37.405Z,124192.00
2023-04-04T11:25:37.750Z,126016.00
2023-04-04T11:26:37.457Z,120832.00
2023-04-04T11:27:37.401Z,122912.00
2023-04-04T11:28:37.417Z,126528.00
2023-04-04T11:29:37.374Z,127712.00
2023-04-04T11:30:37.343Z,123840.00
2023-04-04T11:31:37.448Z,128320.00
2023-04-04T11:32:37.352Z,131648.00
2023-04-04T11:33:37.394Z,123008.00
2023-04-04T11:34:37.336Z,138656.00
2023-04-04T11:35:37.480Z,133664.00
2023-04-04T11:36:37.337Z,126784.00
2023-04-04T11:37:37.571Z,120992.00
2023-04-04T11:38:37.246Z,117504.00
2023-04-04T11:39:37.240Z,111584.00
2023-04-04T11:40:37.386Z,105376.00
2023-04-04T11:41:37.260Z,111968.00
2023-04-04T11:42:37.218Z,113056.00
2023-04-04T11:43:37.204Z,115744.00
2023-04-04T11:44:37.224Z,119168.00
2023-04-04T11:45:37.354Z,121504.00
2023-04-04T11:46:37.256Z,118944.00
2023-04-04T11:47:37.260Z,122400.00
2023-04-04T11:48:37.154Z,120128.00
2023-04-04T11:49:37.150Z,117088.00
2023-04-04T11:50:37.156Z,123040.00
2023-04-04T11:51:37.115Z,118208.00
2023-04-04T11:52:37.122Z,113344.00
2023-04-04T11:53:37.143Z,126048.00
2023-04-04T11:54:37.101Z,115520.00
2023-04-04T11:55:37.235Z,120256.00
2023-04-04T11:56:37.108Z,121152.00
2023-04-04T11:57:37.365Z,120000.00
2023-04-04T11:58:37.085Z,117216.00
2023-04-04T11:59:37.116Z,126336.00
2023-04-04T12:00:37.398Z,116416.00
2023-04-04T12:01:37.271Z,118432.00
2023-04-04T12:02:37.340Z,117728.00
2023-04-04T12:03:37.331Z,114784.00
2023-04-04T12:04:38.266Z,119072.00
2023-04-04T12:05:37.401Z,125856.00
2023-04-04T12:06:37.004Z,127264.00
2023-04-04T12:07:37.000Z,126656.00
2023-04-04T12:08:37.003Z,124928.00
2023-04-04T12:09:36.937Z,109920.00
2023-04-04T12:10:36.944Z,107296.00
2023-04-04T12:11:36.939Z,112128.00
2023-04-04T12:12:36.942Z,110656.00
2023-04-04T12:13:36.947Z,117696.00
2023-04-04T12:14:36.940Z,118880.00
2023-04-04T12:15:37.270Z,120768.00
2023-04-04T12:16:36.978Z,125408.00
2023-04-04T12:17:36.986Z,124800.00
2023-04-04T12:18:37.004Z,124096.00
2023-04-04T12:19:38.312Z,127488.00
2023-04-04T12:20:36.974Z,128096.00
2023-04-04T12:21:36.915Z,127616.00
2023-04-04T12:22:36.853Z,119840.00
2023-04-04T12:23:36.891Z,121376.00
2023-04-04T12:24:36.799Z,119712.00
2023-04-04T12:25:36.886Z,112736.00
2023-04-04T12:26:36.806Z,116608.00
2023-04-04T12:27:36.895Z,116768.00
2023-04-04T12:28:36.776Z,120384.00
2023-04-04T12:29:36.732Z,117792.00
2023-04-04T12:30:36.725Z,122784.00
2023-04-04T12:31:36.853Z,121792.00
2023-04-04T12:32:36.784Z,120064.00
2023-04-04T12:33:36.767Z,120960.00
2023-04-04T12:34:36.732Z,111296.00
2023-04-04T12:35:36.801Z,110656.00
2023-04-04T12:36:36.677Z,110208.00
2023-04-04T12:37:36.668Z,109184.00
2023-04-04T12:38:36.679Z,105088.00
2023-04-04T12:39:36.655Z,107104.00
2023-04-04T12:40:36.682Z,113984.00
2023-04-04T12:41:36.647Z,109280.00
2023-04-04T12:42:36.600Z,113984.00
2023-04-04T12:43:36.603Z,119360.00
2023-04-04T12:44:36.583Z,119936.00
2023-04-04T12:45:36.758Z,119808.00
2023-04-04T12:46:36.592Z,118272.00
2023-04-04T12:47:36.608Z,116128.00
2023-04-04T12:48:36.546Z,113728.00
2023-04-04T12:49:36.534Z,115968.00
2023-04-04T12:50:36.573Z,118432.00
2023-04-04T12:51:36.526Z,116032.00
2023-04-04T12:52:36.497Z,120128.00
2023-04-04T12:53:36.528Z,113920.00
2023-04-04T12:54:36.469Z,115904.00
2023-04-04T12:55:36.481Z,114592.00
2023-04-04T12:56:36.453Z,117056.00
2023-04-04T12:57:36.452Z,120800.00
2023-04-04T12:58:37.639Z,128256.00
2023-04-04T12:59:36.508Z,118784.00
2023-04-04T13:00:36.409Z,123296.00
2023-04-04T13:01:36.401Z,112960.00
2023-04-04T13:02:36.483Z,107552.00
2023-04-04T13:03:36.428Z,109280.00
2023-04-04T13:04:36.407Z,107680.00
2023-04-04T13:05:36.360Z,110656.00
2023-04-04T13:06:36.383Z,107616.00
2023-04-04T13:07:36.348Z,105952.00
2023-04-04T13:08:36.383Z,109408.00
2023-04-04T13:09:37.056Z,107552.00
2023-04-04T13:10:36.303Z,111136.00
2023-04-04T13:11:36.295Z,106592.00
2023-04-04T13:12:36.306Z,107040.00
2023-04-04T13:13:36.366Z,104768.00
2023-04-04T13:14:36.297Z,108576.00
2023-04-04T13:15:36.275Z,102880.00
2023-04-04T13:16:36.271Z,101696.00
2023-04-04T13:17:36.311Z,97472.00
2023-04-04T13:18:36.238Z,97600.00
2023-04-04T13:19:36.251Z,97024.00
2023-04-04T13:20:36.281Z,103296.00
2023-04-04T13:21:36.228Z,99552.00
2023-04-04T13:22:36.190Z,102560.00
2023-04-04T13:23:36.289Z,98496.00
2023-04-04T13:24:36.210Z,102048.00
2023-04-04T13:25:36.183Z,101120.00
2023-04-04T13:26:36.143Z,105344.00
2023-04-04T13:27:36.167Z,102304.00
2023-04-04T13:28:36.138Z,96864.00
2023-04-04T13:29:36.245Z,95680.00
2023-04-04T13:30:36.153Z,94272.00
2023-04-04T13:31:36.144Z,100192.00
2023-04-04T13:32:36.131Z,98016.00
2023-04-04T13:33:36.107Z,97760.00
2023-04-04T13:34:36.256Z,97056.00
2023-04-04T13:35:36.059Z,96288.00
2023-04-04T13:36:36.158Z,96128.00
2023-04-04T13:37:36.072Z,95456.00
2023-04-04T13:38:36.064Z,89120.00
2023-04-04T13:39:36.123Z,92640.00
2023-04-04T13:40:36.042Z,91232.00
2023-04-04T13:41:36.028Z,91360.00
2023-04-04T13:42:36.124Z,92512.00
2023-04-04T13:43:35.992Z,91968.00
2023-04-04T13:44:36.055Z,95296.00
2023-04-04T13:45:35.963Z,95424.00
2023-04-04T13:46:36.017Z,95808.00
2023-04-04T13:47:36.019Z,93824.00
2023-04-04T13:48:35.981Z,92992.00
2023-04-04T13:49:36.003Z,90656.00
2023-04-04T13:50:35.930Z,89600.00
2023-04-04T13:51:35.920Z,91136.00
2023-04-04T13:52:35.922Z,93088.00
2023-04-04T13:53:35.897Z,92800.00
2023-04-04T13:54:35.885Z,89792.00
2023-04-04T13:55:35.873Z,85600.00
2023-04-04T13:56:35.868Z,84256.00
2023-04-04T13:57:35.894Z,87808.00
2023-04-04T13:58:35.892Z,85856.00
2023-04-04T13:59:35.886Z,83008.00
2023-04-04T14:00:35.844Z,77152.00
2023-04-04T14:01:35.852Z,84000.00
2023-04-04T14:02:35.835Z,76960.00
2023-04-04T14:03:35.801Z,79936.00
2023-04-04T14:04:35.838Z,77824.00
2023-04-04T14:05:35.757Z,78880.00
2023-04-04T14:06:35.750Z,77216.00
2023-04-04T14:07:35.725Z,79584.00
2023-04-04T14:08:35.728Z,81568.00
2023-04-04T14:09:35.704Z,79456.00
2023-04-04T14:10:35.709Z,81472.00
2023-04-04T14:11:35.727Z,79392.00
2023-04-04T14:12:35.687Z,79360.00
2023-04-04T14:13:35.697Z,76576.00
2023-04-04T14:14:37.732Z,74016.00
2023-04-04T14:15:35.788Z,71552.00
2023-04-04T14:16:35.733Z,79328.00
2023-04-04T14:17:35.713Z,74592.00
2023-04-04T14:18:35.665Z,76288.00
2023-04-04T14:19:35.632Z,74176.00
2023-04-04T14:20:35.614Z,78048.00
2023-04-04T14:21:35.593Z,78144.00
2023-04-04T14:22:35.586Z,74368.00
2023-04-04T14:23:35.588Z,70624.00
2023-04-04T14:24:35.544Z,66144.00
2023-04-04T14:25:35.544Z,66592.00
2023-04-04T14:26:35.540Z,68320.00
2023-04-04T14:27:35.516Z,61952.00
2023-04-04T14:28:35.518Z,57792.00
2023-04-04T14:29:35.529Z,57024.00
2023-04-04T14:30:35.488Z,48768.00
2023-04-04T14:31:35.611Z,44704.00
2023-04-04T14:32:35.490Z,47872.00
2023-04-04T14:33:35.469Z,54656.00
2023-04-04T14:34:35.444Z,56800.00
2023-04-04T14:35:35.434Z,50272.00
2023-04-04T14:36:35.432Z,39328.00
2023-04-04T14:37:35.411Z,37376.00
2023-04-04T14:38:35.413Z,30080.00
2023-04-04T14:39:35.392Z,34240.00
2023-04-04T14:40:35.394Z,32672.00
2023-04-04T14:41:35.367Z,41184.00
2023-04-04T14:42:35.361Z,45504.00
2023-04-04T14:43:35.355Z,36480.00
2023-04-04T14:44:35.428Z,46400.00
2023-04-04T14:45:35.368Z,45600.00
2023-04-04T14:46:35.339Z,32160.00
2023-04-04T14:47:35.362Z,36224.00
2023-04-04T14:48:35.310Z,34080.00
2023-04-04T14:49:35.287Z,25152.00
2023-04-04T14:50:35.267Z,27328.00
2023-04-04T14:51:35.257Z,26240.00
2023-04-04T14:52:35.243Z,30176.00
2023-04-04T14:53:35.250Z,36608.00
2023-04-04T14:54:35.216Z,34752.00
2023-04-04T14:55:35.224Z,38528.00
2023-04-04T14:56:35.211Z,27840.00
2023-04-04T14:57:39.233Z,23104.00
2023-04-04T14:58:36.197Z,25536.00
2023-04-04T14:59:35.200Z,31552.00
2023-04-04T15:00:35.164Z,28992.00
2023-04-04T15:01:35.199Z,22464.00
2023-04-04T15:02:35.155Z,23584.00
2023-04-04T15:03:35.156Z,28800.00
2023-04-04T15:04:35.144Z,30112.00
2023-04-04T15:05:35.137Z,30432.00
2023-04-04T15:06:35.168Z,37536.00
2023-04-04T15:07:35.115Z,25664.00
2023-04-04T15:08:35.096Z,20416.00
2023-04-04T15:09:35.062Z,24864.00
2023-04-04T15:10:35.085Z,22592.00
2023-04-04T15:11:35.043Z,34464.00
2023-04-04T15:12:35.032Z,39936.00
2023-04-04T15:13:35.047Z,34496.00
2023-04-04T15:14:35.032Z,25152.00
2023-04-04T15:15:35.005Z,24480.00
2023-04-04T15:16:35.152Z,25792.00
2023-04-04T15:17:34.987Z,12832.00
2023-04-04T15:18:35.011Z,11452.00
2023-04-04T15:19:34.972Z,9836.00
2023-04-04T15:20:34.939Z,9516.00
2023-04-04T15:21:34.927Z,9884.00
2023-04-04T15:22:34.931Z,13460.00
2023-04-04T15:23:34.952Z,16196.00
2023-04-04T15:24:34.905Z,15116.00
2023-04-04T15:25:34.909Z,13448.00
2023-04-04T15:26:34.953Z,24864.00
2023-04-04T15:27:34.936Z,22496.00
2023-04-04T15:28:34.909Z,22112.00
2023-04-04T15:29:34.852Z,26656.00
2023-04-04T15:30:34.830Z,24320.00
2023-04-04T15:31:34.922Z,21280.00
2023-04-04T15:32:34.830Z,18304.00
2023-04-04T15:33:34.820Z,20768.00
2023-04-04T15:34:34.796Z,20384.00
2023-04-04T15:35:34.791Z,19872.00
2023-04-04T15:36:34.849Z,17152.00
2023-04-04T15:37:34.769Z,18528.00
2023-04-04T15:38:34.758Z,16068.00
2023-04-04T15:39:39.778Z,15684.00
2023-04-04T15:40:35.726Z,17920.00
2023-04-04T15:41:34.714Z,14668.00
2023-04-04T15:42:34.692Z,13988.00
2023-04-04T15:43:34.721Z,15156.00
2023-04-04T15:44:34.674Z,12736.00
2023-04-04T15:45:34.730Z,10544.00
2023-04-04T15:46:34.654Z,11316.00
2023-04-04T15:47:34.674Z,11812.00
2023-04-04T15:48:34.649Z,12956.00
2023-04-04T15:49:34.633Z,12532.00
2023-04-04T15:50:34.610Z,12740.00
2023-04-04T15:51:34.599Z,11124.00
2023-04-04T15:52:34.602Z,9648.00
2023-04-04T15:53:34.615Z,9036.00
2023-04-04T15:54:34.571Z,8432.00
2023-04-04T15:55:34.591Z,8288.00
2023-04-04T15:56:34.581Z,8044.00
2023-04-04T15:57:34.549Z,7868.00
2023-04-04T15:58:34.589Z,7624.00
2023-04-04T15:59:34.535Z,7512.00
2023-04-04T16:00:34.517Z,7456.00
2023-04-04T16:01:34.652Z,7296.00
2023-04-04T16:02:34.754Z,7036.00
2023-04-04T16:03:34.526Z,6972.00
2023-04-04T16:04:34.464Z,6868.00
2023-04-04T16:05:34.456Z,6628.00
2023-04-04T16:06:35.543Z,6484.00
2023-04-04T16:07:34.440Z,6432.00
2023-04-04T16:08:34.437Z,6232.00
2023-04-04T16:09:34.411Z,5868.00
2023-04-04T16:10:34.402Z,5880.00
2023-04-04T16:11:34.449Z,5580.00
2023-04-04T16:12:34.372Z,5448.00
2023-04-04T16:13:34.407Z,5268.00
2023-04-04T16:14:34.360Z,5316.00
2023-04-04T16:15:34.369Z,5300.00
2023-04-04T16:16:34.358Z,5068.00
2023-04-04T16:17:34.347Z,5032.00
2023-04-04T16:18:34.337Z,4876.00
2023-04-04T16:19:34.342Z,4664.00
2023-04-04T16:20:34.289Z,4672.00
2023-04-04T16:21:34.303Z,4460.00
2023-04-04T16:22:34.291Z,4508.00
2023-04-04T16:23:34.283Z,4380.00
2023-04-04T16:24:34.245Z,4504.00
2023-04-04T16:25:34.247Z,4604.00
2023-04-04T16:26:34.221Z,4568.00
2023-04-04T16:27:34.212Z,4324.00
2023-04-04T16:28:34.243Z,4428.00
2023-04-04T16:29:34.235Z,4628.00
2023-04-04T16:30:34.184Z,4300.00
2023-04-04T16:31:34.211Z,4428.00
2023-04-04T16:32:34.183Z,4516.00
2023-04-04T16:33:34.160Z,4360.00
2023-04-04T16:34:34.511Z,4540.00
2023-04-04T16:35:34.171Z,4396.00
2023-04-04T16:36:34.172Z,4548.00
2023-04-04T16:37:34.137Z,4488.00
2023-04-04T16:38:34.131Z,4620.00
2023-04-04T16:39:34.109Z,4532.00
2023-04-04T16:40:34.069Z,4488.00
2023-04-04T16:41:34.066Z,4532.00
2023-04-04T16:42:34.052Z,4532.00
2023-04-04T16:43:34.057Z,4372.00
2023-04-04T16:44:34.028Z,4380.00
2023-04-04T16:45:34.068Z,4328.00
2023-04-04T16:46:34.050Z,4252.00
2023-04-04T16:47:34.019Z,4256.00
2023-04-04T16:48:34.010Z,4220.00